createdAt,value
2023-01-23T00:02:19.349Z,101136.47
2023-01-23T00:07:21.206Z,101138.88
2023-01-23T00:12:23.033Z,101147.28
2023-01-23T00:17:27.123Z,101148.44
2023-01-23T00:22:28.706Z,101147.69
2023-01-23T00:27:30.749Z,101162.22
2023-01-23T00:32:33.015Z,101164.88
2023-01-23T00:37:39.172Z,101178.69
2023-01-23T00:42:40.820Z,101166.06
2023-01-23T00:47:42.519Z,101177.50
2023-01-23T00:52:44.204Z,101183.25
2023-01-23T00:57:45.869Z,101175.44
2023-01-23T01:02:47.689Z,101177.34
2023-01-23T01:07:49.964Z,101160.94
2023-01-23T01:12:52.303Z,101153.00
2023-01-23T01:17:57.328Z,101143.53
2023-01-23T01:23:00.522Z,101155.38
2023-01-23T01:28:02.799Z,101152.06
2023-01-23T01:33:04.823Z,101152.38
2023-01-23T01:38:06.521Z,101153.28
2023-01-23T01:43:17.433Z,101140.69
2023-01-23T01:48:21.658Z,101129.13
2023-01-23T01:53:26.986Z,101132.72
2023-01-23T01:58:29.112Z,101126.56
2023-01-23T02:03:32.445Z,101131.22
2023-01-23T02:08:41.764Z,101138.31
2023-01-23T02:13:43.744Z,101146.72
2023-01-23T02:18:49.744Z,101148.31
2023-01-23T02:24:20.165Z,101162.66
2023-01-23T02:29:21.934Z,101162.00
2023-01-23T02:34:29.713Z,101144.88
2023-01-23T02:39:35.508Z,101150.25
2023-01-23T02:44:37.231Z,101158.69
2023-01-23T02:49:40.534Z,101143.78
2023-01-23T02:54:43.528Z,101161.50
2023-01-23T03:00:03.882Z,101170.75
2023-01-23T03:05:09.712Z,101163.00
2023-01-23T03:10:12.103Z,101162.56
2023-01-23T03:15:17.344Z,101158.00
2023-01-23T03:20:20.009Z,101166.22
2023-01-23T03:25:21.942Z,101138.47
2023-01-23T03:30:25.572Z,101130.84
2023-01-23T03:35:27.323Z,101119.84
2023-01-23T03:40:48.671Z,101120.94
2023-01-23T03:45:51.664Z,101134.16
2023-01-23T03:50:53.402Z,101150.13
2023-01-23T03:55:56.479Z,101149.91
2023-01-23T04:01:03.244Z,101146.00
2023-01-23T04:06:09.023Z,101137.72
2023-01-23T04:11:12.731Z,101153.66
2023-01-23T04:16:15.853Z,101152.69
2023-01-23T04:21:17.862Z,101141.91
2023-01-23T04:26:19.630Z,101133.75
2023-01-23T04:31:21.594Z,101129.22
2023-01-23T04:36:24.199Z,101133.84
2023-01-23T04:41:28.496Z,101135.03
2023-01-23T04:46:50.818Z,101123.59
2023-01-23T04:51:54.422Z,101133.97
2023-01-23T04:56:59.856Z,101131.03
2023-01-23T05:02:02.465Z,101120.94
2023-01-23T05:07:12.367Z,101122.56
2023-01-23T05:12:19.508Z,101119.31
2023-01-23T05:17:21.712Z,101121.03
2023-01-23T05:22:27.271Z,101128.38
2023-01-23T05:27:29.181Z,101113.38
2023-01-23T05:32:30.890Z,101116.28
2023-01-23T05:37:40.983Z,101130.31
2023-01-23T05:42:43.431Z,101160.47
2023-01-23T05:48:03.738Z,101170.03
2023-01-23T05:53:06.441Z,101183.50
2023-01-23T05:58:10.877Z,101180.47
2023-01-23T06:03:33.128Z,101169.59
2023-01-23T06:09:04.031Z,101173.66
2023-01-23T06:14:06.391Z,101176.38
2023-01-23T06:19:10.147Z,101183.81
2023-01-23T06:24:12.577Z,101186.47
2023-01-23T06:29:14.412Z,101197.03
2023-01-23T06:34:16.490Z,101196.19
2023-01-23T06:39:30.274Z,101195.84
2023-01-23T06:44:39.755Z,101204.91
2023-01-23T06:49:41.814Z,101200.38
2023-01-23T06:54:43.602Z,101215.00
2023-01-23T06:59:47.131Z,101217.72
2023-01-23T07:04:50.510Z,101220.22
2023-01-23T07:09:52.213Z,101225.34
2023-01-23T07:14:57.983Z,101227.41
2023-01-23T07:20:08.580Z,101217.38
2023-01-23T07:25:15.697Z,101219.84
2023-01-23T07:30:18.111Z,101203.66
2023-01-23T07:35:21.159Z,101203.88
2023-01-23T07:40:23.013Z,101225.00
2023-01-23T07:45:24.870Z,101229.09
2023-01-23T07:50:26.517Z,101218.06
2023-01-23T07:55:28.116Z,101213.09
2023-01-23T08:00:30.391Z,101228.28
2023-01-23T08:05:32.301Z,101230.88
2023-01-23T08:10:33.951Z,101232.78
2023-01-23T08:15:37.620Z,101239.91
2023-01-23T08:20:39.246Z,101224.84
2023-01-23T08:25:40.808Z,101240.22
2023-01-23T08:30:42.426Z,101233.56
2023-01-23T08:35:51.555Z,101227.09
2023-01-23T08:40:55.547Z,101225.56
2023-01-23T08:45:59.057Z,101221.09
2023-01-23T08:51:02.933Z,101235.53
2023-01-23T08:56:16.833Z,101235.28
2023-01-23T09:01:21.631Z,101234.69
2023-01-23T09:06:23.633Z,101233.41
2023-01-23T09:11:25.351Z,101235.56
2023-01-23T09:16:27.141Z,101240.59
2023-01-23T09:21:28.785Z,101245.31
2023-01-23T09:26:30.636Z,101242.28
2023-01-23T09:31:32.260Z,101238.81
2023-01-23T09:36:42.859Z,101248.84
2023-01-23T09:41:46.829Z,101246.50
2023-01-23T09:46:53.289Z,101239.06
2023-01-23T09:52:02.564Z,101240.50
2023-01-23T09:57:15.174Z,101242.66
2023-01-23T10:02:25.064Z,101240.44
2023-01-23T10:07:46.634Z,101234.13
2023-01-23T10:13:15.495Z,101233.00
2023-01-23T10:18:37.358Z,101222.63
2023-01-23T10:23:52.417Z,101214.59
2023-01-23T10:29:01.771Z,101221.94
2023-01-23T10:34:09.575Z,101230.34
2023-01-23T10:39:25.121Z,101214.78
2023-01-23T10:44:26.715Z,101221.31
2023-01-23T10:49:45.162Z,101216.00
2023-01-23T10:54:47.071Z,101199.94
2023-01-23T10:59:54.425Z,101195.91
2023-01-23T11:04:56.235Z,101188.09
2023-01-23T11:10:16.420Z,101182.19
2023-01-23T11:15:31.139Z,101179.88
2023-01-23T11:20:41.009Z,101175.50
2023-01-23T11:25:46.653Z,101166.31
2023-01-23T11:31:11.633Z,101172.44
2023-01-23T11:36:25.635Z,101164.09
2023-01-23T11:41:33.427Z,101165.34
2023-01-23T11:46:59.506Z,101160.53
2023-01-23T11:52:36.507Z,101161.91
2023-01-23T11:58:04.168Z,101150.72
2023-01-23T12:03:55.275Z,101140.84
2023-01-23T12:09:09.731Z,101144.28
2023-01-23T12:14:49.908Z,101142.75
2023-01-23T12:20:18.457Z,101126.28
2023-01-23T12:26:00.781Z,101126.47
2023-01-23T12:31:13.761Z,101132.38
2023-01-23T12:36:29.459Z,101127.56
2023-01-23T12:41:40.435Z,101128.63
2023-01-23T12:46:49.241Z,101129.00
2023-01-23T12:51:57.821Z,101129.44
2023-01-23T12:57:01.841Z,101130.06
2023-01-23T13:02:15.620Z,101136.22
2023-01-23T13:07:20.236Z,101122.69
2023-01-23T13:12:23.611Z,101122.50
2023-01-23T13:17:36.866Z,101113.91
2023-01-23T13:22:38.694Z,101112.72
2023-01-23T13:27:55.221Z,101102.78
2023-01-23T13:33:18.054Z,101092.97
2023-01-23T13:38:22.740Z,101094.69
2023-01-23T13:43:50.822Z,101092.09
2023-01-23T14:21:59.353Z,101095.19
2023-01-23T14:27:08.492Z,101093.97
2023-01-23T14:32:24.693Z,101100.84
2023-01-23T14:37:28.298Z,101104.53
2023-01-23T14:42:31.901Z,101115.25
2023-01-23T14:47:39.455Z,101121.84
2023-01-23T14:52:42.759Z,101137.47
2023-01-23T14:57:44.519Z,101131.88
2023-01-23T15:02:50.963Z,101134.63
2023-01-23T15:08:03.085Z,101129.41
2023-01-23T15:13:32.464Z,101141.50
2023-01-23T15:18:34.970Z,101144.72
2023-01-23T15:23:39.304Z,101149.72
2023-01-23T15:28:53.366Z,101154.19
2023-01-23T15:33:57.454Z,101143.56
2023-01-23T15:38:59.808Z,101146.09
2023-01-23T15:44:01.424Z,101147.44
2023-01-23T15:49:04.269Z,101143.44
2023-01-23T15:54:12.151Z,101141.94
2023-01-23T15:59:16.214Z,101151.88
2023-01-23T16:04:18.601Z,101151.50
2023-01-23T16:09:30.512Z,101147.69
2023-01-23T16:14:32.276Z,101145.31
2023-01-23T16:19:34.164Z,101155.38
2023-01-23T16:24:39.401Z,101167.44
2023-01-23T16:29:43.903Z,101168.28
2023-01-23T16:34:45.777Z,101179.44
2023-01-23T16:39:47.831Z,101181.56
2023-01-23T16:44:50.332Z,101186.63
2023-01-23T16:49:53.691Z,101186.94
2023-01-23T16:54:55.815Z,101192.69
2023-01-23T16:59:58.421Z,101192.41
2023-01-23T17:05:00.224Z,101192.19
2023-01-23T17:10:01.853Z,101199.00
2023-01-23T17:15:04.094Z,101199.78
2023-01-23T17:20:06.438Z,101212.94
2023-01-23T17:25:20.509Z,101212.09
2023-01-23T17:30:24.551Z,101214.47
2023-01-23T17:35:37.274Z,101220.41
2023-01-23T17:40:40.609Z,101215.16
2023-01-23T17:45:45.482Z,101226.16
2023-01-23T17:50:47.320Z,101219.81
2023-01-23T17:55:49.195Z,101230.84
2023-01-23T18:00:53.378Z,101240.00
2023-01-23T18:05:55.064Z,101233.78
2023-01-23T18:10:58.911Z,101222.97
2023-01-23T18:16:10.278Z,101217.75
2023-01-23T18:21:17.880Z,101225.00
2023-01-23T18:26:42.210Z,101234.06
2023-01-23T18:31:59.298Z,101237.06
2023-01-23T18:37:26.083Z,101236.41
2023-01-23T18:42:38.723Z,101233.31
2023-01-23T18:47:40.732Z,101234.19
2023-01-23T18:53:12.201Z,101227.50
2023-01-23T18:58:41.773Z,101223.09
2023-01-23T19:03:45.022Z,101219.16
2023-01-23T19:08:47.935Z,101228.16
2023-01-23T19:14:17.676Z,101238.19
2023-01-23T19:19:30.267Z,101242.41
2023-01-23T19:24:32.336Z,101230.63
2023-01-23T19:29:34.415Z,101242.03
2023-01-23T19:34:36.199Z,101252.34
2023-01-23T19:39:37.958Z,101257.03
2023-01-23T19:44:39.757Z,101276.53
2023-01-23T19:49:41.444Z,101273.38
2023-01-23T19:54:43.075Z,101282.66
2023-01-23T19:59:44.923Z,101283.72
2023-01-23T20:04:47.316Z,101292.13
2023-01-23T20:09:48.918Z,101288.41
2023-01-23T20:14:50.642Z,101271.66
2023-01-23T20:19:53.306Z,101286.09
2023-01-23T20:24:55.264Z,101296.13
2023-01-23T20:29:57.118Z,101294.97
2023-01-23T20:34:59.923Z,101295.34
2023-01-23T20:40:01.782Z,101296.44
2023-01-23T20:45:03.868Z,101305.72
2023-01-23T20:50:06.133Z,101300.91
2023-01-23T20:55:08.460Z,101293.66
2023-01-23T21:00:10.872Z,101302.34
2023-01-23T21:05:12.627Z,101314.19
2023-01-23T21:10:14.863Z,101329.00
2023-01-23T21:15:16.500Z,101333.22
2023-01-23T21:20:18.387Z,101335.50
2023-01-23T21:25:20.640Z,101308.63
2023-01-23T21:30:22.453Z,101319.03
2023-01-23T21:35:24.097Z,101330.81
2023-01-23T21:40:25.738Z,101334.84
2023-01-23T21:45:27.334Z,101325.94
2023-01-23T21:50:29.121Z,101327.28
2023-01-23T21:55:30.746Z,101325.94
2023-01-23T22:00:50.750Z,101343.31
2023-01-23T22:05:57.727Z,101330.13
2023-01-23T22:10:59.351Z,101331.66
2023-01-23T22:16:02.226Z,101331.66
2023-01-23T22:21:05.319Z,101345.91
2023-01-23T22:26:10.106Z,101343.28
2023-01-23T22:31:14.288Z,101339.28
2023-01-23T22:36:19.245Z,101343.09
2023-01-23T22:41:21.497Z,101356.88
2023-01-23T22:46:23.701Z,101359.66
2023-01-23T22:51:27.052Z,101349.59
2023-01-23T22:56:29.080Z,101350.56
2023-01-23T23:01:30.903Z,101352.91
2023-01-23T23:06:32.529Z,101353.09
2023-01-23T23:11:36.911Z,101357.41
2023-01-23T23:16:39.084Z,101359.47
2023-01-23T23:21:40.916Z,101355.88
2023-01-23T23:26:42.585Z,101353.19
2023-01-23T23:31:44.314Z,101357.41
2023-01-23T23:36:46.716Z,101360.44
2023-01-23T23:41:48.466Z,101350.28
2023-01-23T23:46:50.088Z,101357.41
2023-01-23T23:51:52.084Z,101361.72
2023-01-23T23:56:53.682Z,101373.09
